createdAt,value
2018-07-04T00:01:41.233Z,48.63
2018-07-04T00:04:20.113Z,48.42
2018-07-04T00:06:58.997Z,48.46
2018-07-04T00:09:37.823Z,48.24
2018-07-04T00:12:16.816Z,48.55
2018-07-04T00:14:55.865Z,48.65
2018-07-04T00:17:34.816Z,48.68
2018-07-04T00:20:13.649Z,48.95
2018-07-04T00:22:52.577Z,49.11
2018-07-04T00:25:31.580Z,48.98
2018-07-04T00:28:10.369Z,49.29
2018-07-04T00:30:49.211Z,49.58
2018-07-04T00:33:28.034Z,49.66
2018-07-04T00:36:06.962Z,49.72
2018-07-04T00:38:45.832Z,49.12
2018-07-04T00:41:24.653Z,49.29
2018-07-04T00:44:03.569Z,48.77
2018-07-04T00:46:42.426Z,48.84
2018-07-04T00:49:21.101Z,49.61
2018-07-04T00:52:00.070Z,49.63
2018-07-04T00:54:39.286Z,49.97
2018-07-04T00:57:18.063Z,50.06
2018-07-04T00:59:56.957Z,50.19
2018-07-04T01:02:35.850Z,50.44
2018-07-04T01:05:14.910Z,50.60
2018-07-04T01:07:53.883Z,50.55
2018-07-04T01:10:33.290Z,50.49
2018-07-04T01:13:12.323Z,50.72
2018-07-04T01:15:51.141Z,50.60
2018-07-04T01:18:30.037Z,50.66
2018-07-04T01:21:11.913Z,50.81
2018-07-04T01:23:51.244Z,50.92
2018-07-04T01:26:30.233Z,50.76
2018-07-04T01:29:08.938Z,50.98
2018-07-04T01:31:47.871Z,51.58
2018-07-04T01:34:26.692Z,51.27
2018-07-04T01:37:05.742Z,51.33
2018-07-04T01:39:44.629Z,50.89
2018-07-04T01:42:23.549Z,50.91
2018-07-04T01:45:02.496Z,50.71
2018-07-04T01:47:41.523Z,50.69
2018-07-04T01:50:20.262Z,51.29
2018-07-04T01:52:59.109Z,51.78
2018-07-04T01:55:38.027Z,51.92
2018-07-04T01:58:16.896Z,52.06
2018-07-04T02:00:55.773Z,52.34
2018-07-04T02:03:34.715Z,52.16
2018-07-04T02:06:13.501Z,51.67
2018-07-04T02:08:52.417Z,52.10
2018-07-04T02:11:31.309Z,51.60
2018-07-04T02:14:10.082Z,52.01
2018-07-04T02:16:49.109Z,52.09
2018-07-04T02:19:27.859Z,52.34
2018-07-04T02:22:06.716Z,52.50
2018-07-04T02:24:45.711Z,52.17
2018-07-04T02:27:24.853Z,52.24
2018-07-04T02:30:03.760Z,51.52
2018-07-04T02:32:42.462Z,52.02
2018-07-04T02:35:21.479Z,51.35
2018-07-04T02:38:00.426Z,51.05
2018-07-04T02:40:39.493Z,50.58
2018-07-04T02:43:18.356Z,50.96
2018-07-04T02:45:57.278Z,50.84
2018-07-04T02:48:36.231Z,50.84
2018-07-04T02:51:15.150Z,50.72
2018-07-04T02:53:54.033Z,50.01
2018-07-04T02:56:32.770Z,49.47
2018-07-04T02:59:11.662Z,49.13
2018-07-04T03:01:50.631Z,48.84
2018-07-04T03:04:29.646Z,48.98
2018-07-04T03:07:08.557Z,48.35
2018-07-04T03:09:47.259Z,48.45
2018-07-04T03:12:26.177Z,48.41
2018-07-04T03:15:05.168Z,49.15
2018-07-04T03:17:44.223Z,49.46
2018-07-04T03:20:23.087Z,48.65
2018-07-04T03:23:02.025Z,49.17
2018-07-04T03:25:40.937Z,48.75
2018-07-04T03:28:19.869Z,48.49
2018-07-04T03:30:58.854Z,48.12
2018-07-04T03:33:37.735Z,48.78
2018-07-04T03:36:16.621Z,48.57
2018-07-04T03:38:55.445Z,48.57
2018-07-04T03:41:34.411Z,48.59
2018-07-04T03:44:13.301Z,48.87
2018-07-04T03:46:52.122Z,48.46
2018-07-04T03:49:31.005Z,48.18
2018-07-04T03:52:09.778Z,48.58
2018-07-04T03:54:48.666Z,47.98
2018-07-04T03:57:27.565Z,48.09
2018-07-04T04:00:06.274Z,47.40
2018-07-04T04:02:45.117Z,45.83
2018-07-04T04:05:24.077Z,45.45
2018-07-04T04:08:02.978Z,44.69
2018-07-04T04:10:41.909Z,43.92
2018-07-04T04:13:20.825Z,43.60
2018-07-04T04:15:59.766Z,42.75
2018-07-04T04:18:45.729Z,42.66
2018-07-04T04:21:24.625Z,42.68
2018-07-04T04:24:03.381Z,41.49
2018-07-04T04:26:42.257Z,41.82
2018-07-04T04:29:21.106Z,41.43
2018-07-04T04:32:00.023Z,41.77
2018-07-04T04:34:38.873Z,41.04
2018-07-04T04:37:17.753Z,40.73
2018-07-04T04:39:56.590Z,40.06
2018-07-04T04:42:35.514Z,40.02
2018-07-04T04:45:14.419Z,39.87
2018-07-04T04:47:53.185Z,39.49
2018-07-04T04:50:32.175Z,40.11
2018-07-04T04:53:11.013Z,40.15
2018-07-04T04:55:49.930Z,39.59
2018-07-04T04:58:28.690Z,39.28
2018-07-04T05:01:07.603Z,38.79
2018-07-04T05:03:46.332Z,38.89
2018-07-04T05:06:25.222Z,38.64
2018-07-04T05:09:04.335Z,39.00
2018-07-04T05:11:43.259Z,38.79
2018-07-04T05:14:22.100Z,38.78
2018-07-04T05:17:01.010Z,39.26
2018-07-04T05:19:40.044Z,38.42
2018-07-04T05:22:18.985Z,38.61
2018-07-04T05:24:58.005Z,39.25
2018-07-04T05:27:36.937Z,38.95
2018-07-04T05:30:15.737Z,38.82
2018-07-04T05:32:54.637Z,39.18
2018-07-04T05:35:33.507Z,39.10
2018-07-04T05:38:12.441Z,39.10
2018-07-04T05:40:51.426Z,39.14
2018-07-04T05:43:30.346Z,39.49
2018-07-04T05:46:09.270Z,39.66
2018-07-04T05:48:48.153Z,39.25
2018-07-04T05:51:27.001Z,40.02
2018-07-04T05:54:05.777Z,40.05
2018-07-04T05:56:44.565Z,39.53
2018-07-04T05:59:23.442Z,39.53
2018-07-04T06:02:02.173Z,39.74
2018-07-04T06:04:41.026Z,39.75
2018-07-04T06:07:19.946Z,40.17
2018-07-04T06:09:58.698Z,40.09
2018-07-04T06:12:37.726Z,39.88
2018-07-04T06:15:16.462Z,39.64
2018-07-04T06:17:55.398Z,39.78
2018-07-04T06:20:34.411Z,40.57
2018-07-04T06:23:13.382Z,40.51
2018-07-04T06:25:52.250Z,40.67
2018-07-04T06:28:31.098Z,40.35
2018-07-04T06:31:09.883Z,41.30
2018-07-04T06:33:48.925Z,40.76
2018-07-04T06:36:27.627Z,40.85
2018-07-04T06:38:54.065Z,40.85
2018-07-04T06:41:20.515Z,40.87
2018-07-04T06:43:46.949Z,40.88
2018-07-04T06:46:13.385Z,40.86
2018-07-04T06:48:39.805Z,40.69
2018-07-04T06:51:06.234Z,40.56
2018-07-04T06:53:32.929Z,40.57
2018-07-04T06:55:59.368Z,40.91
2018-07-04T06:58:25.793Z,40.94
2018-07-04T07:00:52.247Z,41.11
2018-07-04T07:03:31.069Z,40.46
2018-07-04T07:06:10.056Z,41.16
2018-07-04T07:08:48.944Z,40.70
2018-07-04T07:11:27.981Z,40.79
2018-07-04T07:14:06.868Z,40.71
2018-07-04T07:16:45.611Z,40.85
2018-07-04T07:19:24.593Z,41.55
2018-07-04T07:22:03.391Z,41.26
2018-07-04T07:24:42.323Z,40.58
2018-07-04T07:27:21.117Z,40.66
2018-07-04T07:30:00.152Z,40.43
2018-07-04T07:32:38.897Z,40.14
2018-07-04T07:35:17.686Z,40.48
2018-07-04T07:37:57.636Z,40.43
2018-07-04T07:40:36.567Z,40.63
2018-07-04T07:43:15.541Z,40.38
2018-07-04T07:45:54.289Z,40.72
2018-07-04T07:48:33.154Z,40.50
2018-07-04T07:51:11.921Z,40.77
2018-07-04T07:53:50.734Z,40.66
2018-07-04T07:56:29.716Z,39.98
2018-07-04T07:59:08.581Z,40.93
2018-07-04T08:01:47.552Z,40.42
2018-07-04T08:04:26.426Z,40.43
2018-07-04T08:07:05.298Z,41.06
2018-07-04T08:09:44.227Z,41.03
2018-07-04T08:12:23.178Z,40.96
2018-07-04T08:15:01.988Z,40.64
2018-07-04T08:17:40.946Z,40.18
2018-07-04T08:20:19.716Z,41.21
2018-07-04T08:22:58.590Z,41.26
2018-07-04T08:25:37.354Z,40.77
2018-07-04T08:28:16.209Z,41.24
2018-07-04T08:30:55.069Z,40.92
2018-07-04T08:33:33.931Z,40.51
2018-07-04T08:36:12.997Z,41.16
2018-07-04T08:38:51.876Z,40.75
2018-07-04T08:41:31.010Z,40.84
2018-07-04T08:44:09.919Z,40.69
2018-07-04T08:46:48.828Z,40.24
2018-07-04T08:49:27.764Z,40.01
2018-07-04T08:52:06.762Z,40.47
2018-07-04T08:54:45.540Z,40.62
2018-07-04T08:57:24.497Z,40.31
2018-07-04T09:00:03.430Z,40.62
2018-07-04T09:02:42.368Z,40.66
2018-07-04T09:05:21.382Z,40.61
2018-07-04T09:08:00.192Z,40.73
2018-07-04T09:10:38.965Z,39.49
2018-07-04T09:13:17.854Z,40.14
2018-07-04T09:15:56.859Z,40.17
2018-07-04T09:18:35.869Z,39.84
2018-07-04T09:21:14.750Z,39.90
2018-07-04T09:23:53.666Z,40.18
2018-07-04T09:26:32.634Z,40.26
2018-07-04T09:29:11.497Z,40.17
2018-07-04T09:31:50.540Z,40.43
2018-07-04T09:34:29.506Z,40.32
2018-07-04T09:37:08.233Z,39.93
2018-07-04T09:39:47.342Z,40.06
2018-07-04T09:42:26.295Z,40.75
2018-07-04T09:45:05.306Z,40.13
2018-07-04T09:47:44.220Z,40.05
2018-07-04T09:50:23.069Z,40.29
2018-07-04T09:53:01.781Z,40.61
2018-07-04T09:55:40.714Z,39.59
2018-07-04T09:58:19.516Z,39.23
2018-07-04T10:01:03.942Z,39.26
2018-07-04T10:03:42.726Z,39.47
2018-07-04T10:06:21.499Z,39.08
2018-07-04T10:09:00.354Z,38.95
2018-07-04T10:11:39.241Z,38.74
2018-07-04T10:14:18.022Z,39.04
2018-07-04T10:16:57.008Z,38.69
2018-07-04T10:19:35.945Z,39.23
2018-07-04T10:22:15.067Z,38.26
2018-07-04T10:24:53.882Z,38.72
2018-07-04T10:27:32.663Z,38.48
2018-07-04T10:30:11.557Z,38.58
2018-07-04T10:32:50.488Z,38.18
2018-07-04T10:35:29.362Z,38.19
2018-07-04T10:38:08.295Z,38.03
2018-07-04T10:40:47.711Z,37.68
2018-07-04T10:43:26.615Z,38.52
2018-07-04T10:46:05.580Z,38.88
2018-07-04T10:48:44.382Z,38.47
2018-07-04T10:51:23.209Z,38.18
2018-07-04T10:54:01.882Z,38.18
2018-07-04T10:56:40.737Z,38.31
2018-07-04T10:59:19.497Z,38.18
2018-07-04T11:01:58.438Z,38.20
2018-07-04T11:04:37.268Z,37.95
2018-07-04T11:07:16.370Z,38.71
2018-07-04T11:09:55.289Z,37.05
2018-07-04T11:12:34.603Z,37.50
2018-07-04T11:15:13.540Z,37.90
2018-07-04T11:17:52.408Z,38.11
2018-07-04T11:20:31.314Z,37.90
2018-07-04T11:23:10.176Z,37.92
2018-07-04T11:25:49.053Z,37.62
2018-07-04T11:28:27.950Z,37.46
2018-07-04T11:31:06.805Z,36.47
2018-07-04T11:33:45.537Z,36.82
2018-07-04T11:36:24.573Z,37.13
2018-07-04T11:39:03.617Z,37.56
2018-07-04T11:41:42.293Z,37.18
2018-07-04T11:44:21.205Z,37.45
2018-07-04T11:46:47.638Z,37.61
2018-07-04T11:49:14.088Z,37.28
2018-07-04T11:51:40.522Z,37.01
2018-07-04T11:54:07.192Z,36.53
2018-07-04T11:56:33.696Z,35.95
2018-07-04T11:59:00.110Z,35.83
2018-07-04T12:01:26.542Z,35.83
2018-07-04T12:04:05.466Z,35.34
2018-07-04T12:06:44.479Z,36.45
2018-07-04T12:09:10.911Z,35.99
2018-07-04T12:11:37.358Z,35.74
2018-07-04T12:14:03.810Z,35.10
2018-07-04T12:16:30.266Z,35.14
2018-07-04T12:18:56.714Z,35.13
2018-07-04T12:21:23.162Z,34.84
2018-07-04T12:23:49.629Z,34.86
2018-07-04T12:26:16.101Z,34.85
2018-07-04T12:28:42.548Z,35.26
2018-07-04T12:31:09.014Z,34.92
2018-07-04T12:33:35.470Z,34.68
2018-07-04T12:36:01.947Z,34.73
2018-07-04T12:38:28.401Z,35.58
2018-07-04T12:40:54.868Z,35.08
2018-07-04T12:43:21.502Z,34.84
2018-07-04T12:45:47.975Z,35.00
2018-07-04T12:48:14.427Z,34.43
2018-07-04T12:50:40.926Z,35.44
2018-07-04T12:53:07.407Z,34.98
2018-07-04T12:55:46.395Z,35.66
2018-07-04T12:58:25.435Z,35.08
2018-07-04T13:01:04.338Z,34.58
2018-07-04T13:03:43.274Z,34.92
2018-07-04T13:06:22.658Z,34.91
2018-07-04T13:09:01.830Z,34.60
2018-07-04T13:11:40.783Z,34.70
2018-07-04T13:14:19.625Z,34.14
2018-07-04T13:16:58.709Z,34.58
2018-07-04T13:19:37.725Z,34.39
2018-07-04T13:22:16.685Z,34.23
2018-07-04T13:24:55.782Z,34.48
2018-07-04T13:27:34.741Z,35.02
2018-07-04T13:30:13.618Z,34.96
2018-07-04T13:32:52.529Z,35.15
2018-07-04T13:35:31.431Z,33.89
2018-07-04T13:38:10.483Z,34.04
2018-07-04T13:40:49.275Z,33.29
2018-07-04T13:43:28.599Z,34.37
2018-07-04T13:46:07.647Z,34.75
2018-07-04T13:48:46.495Z,34.79
2018-07-04T13:51:25.438Z,33.73
2018-07-04T13:54:04.334Z,33.63
2018-07-04T13:56:43.333Z,33.79
2018-07-04T13:59:22.434Z,34.07
2018-07-04T14:02:01.266Z,34.15
2018-07-04T14:04:40.196Z,34.57
2018-07-04T14:07:19.082Z,33.67
2018-07-04T14:09:57.955Z,34.10
2018-07-04T14:12:36.790Z,33.68
2018-07-04T14:15:15.697Z,34.17
2018-07-04T14:17:54.641Z,33.82
2018-07-04T14:20:33.419Z,33.02
2018-07-04T14:23:12.308Z,33.44
2018-07-04T14:25:51.235Z,33.96
2018-07-04T14:28:30.337Z,34.06
2018-07-04T14:31:09.198Z,33.99
2018-07-04T14:33:47.921Z,34.16
2018-07-04T14:36:26.819Z,34.18
2018-07-04T14:39:05.760Z,34.73
2018-07-04T14:41:45.027Z,34.08
2018-07-04T14:44:23.821Z,34.79
2018-07-04T14:47:02.721Z,34.80
2018-07-04T14:49:41.790Z,35.05
2018-07-04T14:52:20.638Z,35.25
2018-07-04T14:54:59.503Z,35.64
2018-07-04T14:57:38.367Z,35.26
2018-07-04T15:00:17.206Z,35.27
2018-07-04T15:02:56.123Z,35.02
2018-07-04T15:05:35.111Z,35.19
2018-07-04T15:08:14.157Z,35.25
2018-07-04T15:10:52.981Z,34.79
2018-07-04T15:13:31.917Z,34.90
2018-07-04T15:16:10.780Z,35.08
2018-07-04T15:18:49.750Z,33.41
2018-07-04T15:21:28.765Z,34.31
2018-07-04T15:24:07.791Z,34.55
2018-07-04T15:26:46.561Z,34.24
2018-07-04T15:29:25.428Z,34.84
2018-07-04T15:32:04.290Z,34.73
2018-07-04T15:34:43.161Z,34.98
2018-07-04T15:37:22.125Z,35.00
2018-07-04T15:40:01.030Z,35.22
2018-07-04T15:42:39.984Z,35.34
2018-07-04T15:45:18.968Z,35.41
2018-07-04T15:47:57.922Z,35.73
2018-07-04T15:50:36.797Z,35.29
2018-07-04T15:53:15.569Z,35.17
2018-07-04T15:55:54.362Z,35.23
2018-07-04T15:58:33.237Z,35.43
2018-07-04T16:01:12.026Z,35.70
2018-07-04T16:03:50.918Z,35.64
2018-07-04T16:06:29.854Z,36.13
2018-07-04T16:09:08.801Z,35.94
2018-07-04T16:11:47.575Z,36.39
2018-07-04T16:14:26.461Z,36.43
2018-07-04T16:17:05.400Z,36.34
2018-07-04T16:19:44.534Z,36.38
2018-07-04T16:22:23.566Z,36.00
2018-07-04T16:25:02.685Z,36.34
2018-07-04T16:27:41.559Z,35.46
2018-07-04T16:30:20.841Z,35.86
2018-07-04T16:32:59.806Z,35.50
2018-07-04T16:35:38.742Z,35.69
2018-07-04T16:38:17.394Z,36.12
2018-07-04T16:40:56.313Z,36.12
2018-07-04T16:43:35.181Z,36.47
2018-07-04T16:46:14.136Z,36.31
2018-07-04T16:48:53.005Z,35.74
2018-07-04T16:51:31.837Z,35.33
2018-07-04T16:54:10.806Z,35.25
2018-07-04T16:56:49.694Z,35.77
2018-07-04T16:59:28.629Z,35.87
2018-07-04T17:02:07.548Z,35.59
2018-07-04T17:04:46.425Z,35.79
2018-07-04T17:07:25.293Z,35.95
2018-07-04T17:10:04.039Z,35.85
2018-07-04T17:12:42.971Z,35.60
2018-07-04T17:15:22.122Z,36.10
2018-07-04T17:18:00.809Z,36.19
2018-07-04T17:20:39.846Z,35.93
2018-07-04T17:23:18.726Z,36.03
2018-07-04T17:25:57.701Z,36.02
2018-07-04T17:28:36.543Z,36.10
2018-07-04T17:31:15.474Z,35.95
2018-07-04T17:33:54.389Z,35.26
2018-07-04T17:36:33.137Z,34.90
2018-07-04T17:39:12.108Z,35.41
2018-07-04T17:41:50.996Z,35.68
2018-07-04T17:46:53.362Z,35.05
2018-07-04T17:49:33.463Z,35.16
2018-07-04T17:52:12.280Z,35.10
2018-07-04T17:54:51.137Z,35.48
2018-07-04T17:57:29.892Z,35.43
2018-07-04T18:00:08.806Z,34.42
2018-07-04T18:02:47.758Z,35.21
2018-07-04T18:05:26.661Z,35.35
2018-07-04T18:08:05.665Z,35.88
2018-07-04T18:10:44.651Z,35.38
2018-07-04T18:13:23.453Z,35.67
2018-07-04T18:16:02.486Z,35.99
2018-07-04T18:18:41.496Z,36.30
2018-07-04T18:21:24.025Z,36.05
2018-07-04T18:24:03.369Z,36.08
2018-07-04T18:26:42.225Z,36.01
2018-07-04T18:29:21.234Z,35.45
2018-07-04T18:32:03.750Z,36.02
2018-07-04T18:34:42.549Z,35.80
2018-07-04T18:37:21.477Z,36.31
2018-07-04T18:40:00.368Z,36.09
2018-07-04T18:42:39.258Z,35.85
2018-07-04T18:45:18.109Z,36.41
2018-07-04T18:47:57.090Z,36.85
2018-07-04T18:50:36.202Z,36.91
2018-07-04T18:53:14.991Z,37.32
2018-07-04T18:55:54.562Z,36.88
2018-07-04T18:58:33.541Z,37.29
2018-07-04T19:01:12.361Z,37.55
2018-07-04T19:03:51.253Z,37.49
2018-07-04T19:06:30.333Z,38.43
2018-07-04T19:09:09.309Z,38.54
2018-07-04T19:11:48.223Z,39.08
2018-07-04T19:14:27.149Z,39.27
2018-07-04T19:17:06.058Z,39.85
2018-07-04T19:19:45.022Z,40.41
2018-07-04T19:22:24.033Z,41.52
2018-07-04T19:25:02.935Z,42.21
2018-07-04T19:27:41.925Z,42.41
2018-07-04T19:30:20.669Z,44.03
2018-07-04T19:32:59.893Z,43.11
2018-07-04T19:35:38.656Z,44.22
2018-07-04T19:38:17.965Z,45.34
2018-07-04T19:40:56.825Z,45.03
2018-07-04T19:43:35.953Z,45.30
2018-07-04T19:46:15.141Z,45.59
2018-07-04T19:48:54.585Z,45.77
2018-07-04T19:51:33.455Z,46.14
2018-07-04T19:54:12.637Z,47.77
2018-07-04T19:56:51.493Z,46.94
2018-07-04T19:59:30.497Z,47.17
2018-07-04T20:02:09.349Z,47.61
2018-07-04T20:04:48.145Z,47.96
2018-07-04T20:07:27.147Z,48.53
2018-07-04T20:10:06.190Z,48.97
2018-07-04T20:12:45.033Z,48.78
2018-07-04T20:15:24.062Z,50.35
2018-07-04T20:18:03.112Z,50.21
2018-07-04T20:20:42.356Z,49.70
2018-07-04T20:23:21.801Z,49.88
2018-07-04T20:26:00.750Z,49.56
2018-07-04T20:28:39.510Z,49.72
2018-07-04T20:31:18.378Z,51.37
2018-07-04T20:33:57.201Z,50.48
2018-07-04T20:36:36.257Z,50.17
2018-07-04T20:39:15.238Z,51.05
2018-07-04T20:41:54.159Z,50.72
2018-07-04T20:44:32.932Z,50.83
2018-07-04T20:47:11.900Z,52.67
2018-07-04T20:49:50.894Z,52.21
2018-07-04T20:52:29.866Z,52.58
2018-07-04T20:55:08.745Z,53.94
2018-07-04T20:57:48.094Z,52.72
2018-07-04T21:00:27.083Z,53.17
2018-07-04T21:03:05.894Z,55.63
2018-07-04T21:05:44.741Z,55.79
2018-07-04T21:08:23.704Z,55.05
2018-07-04T21:11:02.565Z,53.93
2018-07-04T21:13:41.521Z,54.74
2018-07-04T21:16:20.334Z,54.81
2018-07-04T21:18:59.331Z,54.09
2018-07-04T21:21:38.193Z,55.79
2018-07-04T21:24:17.102Z,54.67
2018-07-04T21:26:56.058Z,54.26
2018-07-04T21:29:34.961Z,55.34
2018-07-04T21:32:13.881Z,54.84
2018-07-04T21:34:52.746Z,56.41
2018-07-04T21:37:31.697Z,54.94
2018-07-04T21:40:10.718Z,54.60
2018-07-04T21:42:49.625Z,55.04
2018-07-04T21:45:28.592Z,54.83
2018-07-04T21:48:07.462Z,54.71
2018-07-04T21:50:46.282Z,56.37
2018-07-04T21:53:25.319Z,55.64
2018-07-04T21:56:04.281Z,55.62
2018-07-04T21:58:43.149Z,55.49
2018-07-04T22:01:22.263Z,55.81
2018-07-04T22:04:01.216Z,55.84
2018-07-04T22:06:40.023Z,56.25
2018-07-04T22:09:18.795Z,55.67
2018-07-04T22:11:57.754Z,55.70
2018-07-04T22:14:36.562Z,55.80
2018-07-04T22:17:15.448Z,55.87
2018-07-04T22:19:54.346Z,56.09
2018-07-04T22:22:33.181Z,56.16
2018-07-04T22:25:12.027Z,56.14
2018-07-04T22:27:51.021Z,56.43
2018-07-04T22:30:29.989Z,56.53
2018-07-04T22:33:08.983Z,56.82
2018-07-04T22:35:47.802Z,57.78
2018-07-04T22:38:26.705Z,57.96
2018-07-04T22:41:05.602Z,57.39
2018-07-04T22:43:44.644Z,57.27
2018-07-04T22:46:23.513Z,57.83
2018-07-04T22:49:02.394Z,57.23
2018-07-04T22:51:41.321Z,57.32
2018-07-04T22:54:20.058Z,57.16
2018-07-04T22:56:59.002Z,57.03
2018-07-04T22:59:37.765Z,57.30
2018-07-04T23:02:16.633Z,57.00
2018-07-04T23:04:55.530Z,56.97
2018-07-04T23:07:34.454Z,56.69
2018-07-04T23:10:13.391Z,56.86
2018-07-04T23:12:52.198Z,57.00
2018-07-04T23:15:31.130Z,57.65
2018-07-04T23:18:10.058Z,57.48
2018-07-04T23:20:48.937Z,56.77
2018-07-04T23:23:27.830Z,58.07
2018-07-04T23:26:06.708Z,57.79
2018-07-04T23:28:45.654Z,57.31
2018-07-04T23:31:24.555Z,57.61
2018-07-04T23:34:03.518Z,58.21
2018-07-04T23:36:42.510Z,57.79
2018-07-04T23:39:21.425Z,57.94
2018-07-04T23:42:00.623Z,57.97
2018-07-04T23:44:39.462Z,58.66
2018-07-04T23:47:18.341Z,58.64
2018-07-04T23:49:57.221Z,58.98
2018-07-04T23:52:36.097Z,59.93
2018-07-04T23:55:15.270Z,60.45
2018-07-04T23:57:54.214Z,60.21
